Terminal Aerodrome Forecast
Issued by NWS

Home | Current Version | Previous Version | Graphics & Text | Print | Product List | Glossary On
Versions: 1 2 3 4 5 6 7 8 9 10 11 12 13 14 15
000
FTUS43 KFGF 291357 AAA
TAFBJI
TAF AMD
KBJI 291357Z 2914/3012 24018G25KT P6SM OVC025
     FM291700 28020G30KT P6SM BKN040
     FM300100 28015KT P6SM SKC=

USA.gov is the U.S. government's official web portal to all federal, state and local government web resources and services.